Impacts METAR Board
IDs:

KEWR - Newark Intl, NJ, US

Updated at: 1600 UTC 24 Sep 2018
Potential Impact None Slight Moderate High
Time 24/04Z 24/05Z 24/06Z 24/07Z 24/08Z 24/09Z 24/10Z 24/11Z 24/12Z 24/13Z 24/14Z 24/15Z 24/16Z
Temp63 62 62 60 59 59 57 56 56 59 62 63 64
Dewpt56 56 57 57 56 56 55 52 51 52 52 53 55
Altim30.30 30.30 30.31 30.31 30.31 30.34 30.36 30.39 30.41 30.44 30.46 30.47 30.47
VIS10 10 10 10 10 10 10 10 10 10 10 10 10
CIG28 45 36 40 250 42 250 250 250 250 250 250 24
CoverOVCBKNBKNBKNBKNBKNBKNBKNBKNBKNBKNBKNBKN
FltCatMVFRVFRVFRVFRVFRVFRVFRVFRVFRVFRVFRVFRMVFR
WX--------------------------
WDir20202020202010202020405070
WSpd8 6 8 8 8 9 12 10 10 11 10 12 12
WGst-- -- -- -- -- -- -- -- -- -- -- 17 --
Raw hourly METARs
KEWR 240351Z 02008KT 10SM OVC028 17/13 A3030 RMK SLP260 T01720133
KEWR 240451Z 02006KT 10SM SCT028 BKN045 BKN240 17/13 A3030 RMK AO2 SLP258 T01670133 401890144
KEWR 240551Z 02008KT 10SM FEW022 BKN036 BKN240 17/14 A3031 RMK AO2 SLP262 T01670139 10178 20167 53004
KEWR 240651Z 02008KT 10SM SCT022 BKN040 BKN250 16/14 A3031 RMK AO2 SLP263 T01560139
KEWR 240751Z 02008KT 10SM FEW022 SCT045 BKN250 15/13 A3031 RMK AO2 SLP264 T01500133
KEWR 240851Z 02009KT 10SM SCT022 BKN042 BKN250 15/13 A3034 RMK AO2 SLP273 T01500133 53011
KEWR 240951Z 01012KT 10SM FEW022 FEW042 BKN250 14/13 A3036 RMK AO2 SLP281 T01390128
KEWR 241051Z 02010KT 10SM FEW020 FEW040 BKN250 13/11 A3039 RMK AO2 SLP289 T01330111
KEWR 241151Z 02010KT 10SM FEW025 SCT080 BKN250 13/11 A3041 RMK AO2 SLP298 T01330106 10167 20133 53025
KEWR 241251Z 02011KT 10SM FEW025 SCT130 BKN250 15/11 A3044 RMK AO2 SLP306 T01500111
KEWR 241351Z 04010KT 10SM FEW023 SCT100 BKN250 17/11 A3046 RMK AO2 SLP313 T01670111
KEWR 241451Z 05012G17KT 10SM SCT025 BKN250 17/12 A3047 RMK AO2 SLP317 SCT V BKN T01720117 51019
KEWR 241551Z 07012KT 10SM BKN024 BKN250 18/13 A3047 RMK AO2 SLP318 T01780128



Page loaded:  16:59 UTC  |   09:59 AM Pacific  |   10:59 AM Mountain  |   11:59 AM Central  |   12:59 PM Eastern

 

ADVISORIES

FORECASTS

FORECASTS

OBSERVATIONS

USER TOOLS

ABOUT US